sensor_id;sensor_type;location;lat;lon;timestamp;pressure;altitude;pressure_sealevel;temperature;humidity
63556;BME280;49700;48.072;7.800;2023-05-29T00:00:41;99347.66;;;17.45;nan
63556;BME280;49700;48.072;7.800;2023-05-29T00:03:09;99340.75;;;17.25;nan
63556;BME280;49700;48.072;7.800;2023-05-29T00:05:35;99348.50;;;17.09;nan
63556;BME280;49700;48.072;7.800;2023-05-29T00:08:01;99351.34;;;16.97;nan
63556;BME280;49700;48.072;7.800;2023-05-29T00:10:26;99357.53;;;16.88;nan
63556;BME280;49700;48.072;7.800;2023-05-29T00:12:51;99355.19;;;16.85;nan
63556;BME280;49700;48.072;7.800;2023-05-29T00:15:17;99356.13;;;16.84;nan
63556;BME280;49700;48.072;7.800;2023-05-29T00:17:42;99358.94;;;16.83;nan
63556;BME280;49700;48.072;7.800;2023-05-29T00:20:08;99357.13;;;16.83;nan
63556;BME280;49700;48.072;7.800;2023-05-29T00:22:35;99348.59;;;16.89;nan
63556;BME280;49700;48.072;7.800;2023-05-29T00:25:04;99351.94;;;16.91;nan
63556;BME280;49700;48.072;7.800;2023-05-29T00:27:30;99346.63;;;16.91;nan
63556;BME280;49700;48.072;7.800;2023-05-29T00:29:55;99350.94;;;16.92;nan
63556;BME280;49700;48.072;7.800;2023-05-29T00:32:21;99349.59;;;16.88;nan
63556;BME280;49700;48.072;7.800;2023-05-29T00:34:46;99345.81;;;16.91;nan
63556;BME280;49700;48.072;7.800;2023-05-29T00:37:12;99344.13;;;16.90;nan
63556;BME280;49700;48.072;7.800;2023-05-29T00:39:37;99350.41;;;16.89;nan
63556;BME280;49700;48.072;7.800;2023-05-29T00:42:02;99345.69;;;16.83;nan
63556;BME280;49700;48.072;7.800;2023-05-29T00:44:28;99343.16;;;16.81;nan
63556;BME280;49700;48.072;7.800;2023-05-29T00:46:53;99342.34;;;16.80;nan
63556;BME280;49700;48.072;7.800;2023-05-29T00:49:21;99341.50;;;16.80;nan
63556;BME280;49700;48.072;7.800;2023-05-29T00:51:48;99345.81;;;16.81;nan
63556;BME280;49700;48.072;7.800;2023-05-29T00:54:20;99350.84;;;16.84;nan
63556;BME280;49700;48.072;7.800;2023-05-29T00:56:47;99354.47;;;16.83;nan
63556;BME280;49700;48.072;7.800;2023-05-29T00:59:12;99355.59;;;16.80;nan
63556;BME280;49700;48.072;7.800;2023-05-29T01:01:38;99353.25;;;16.77;nan
63556;BME280;49700;48.072;7.800;2023-05-29T01:04:05;99347.19;;;16.75;nan
63556;BME280;49700;48.072;7.800;2023-05-29T01:06:35;99355.16;;;16.75;nan
63556;BME280;49700;48.072;7.800;2023-05-29T01:09:00;99352.50;;;16.75;nan
63556;BME280;49700;48.072;7.800;2023-05-29T01:11:42;99351.41;;;16.78;nan
63556;BME280;49700;48.072;7.800;2023-05-29T01:14:29;99360.38;;;16.77;nan
63556;BME280;49700;48.072;7.800;2023-05-29T01:17:50;99360.47;;;16.75;nan
63556;BME280;49700;48.072;7.800;2023-05-29T01:21:14;99366.06;;;16.72;nan
63556;BME280;49700;48.072;7.800;2023-05-29T01:28:30;99370.66;;;16.60;nan
63556;BME280;49700;48.072;7.800;2023-05-29T01:31:00;99368.31;;;16.57;nan
63556;BME280;49700;48.072;7.800;2023-05-29T01:33:26;99367.63;;;16.55;nan
63556;BME280;49700;48.072;7.800;2023-05-29T01:35:52;99370.53;;;16.52;nan
63556;BME280;49700;48.072;7.800;2023-05-29T01:38:17;99363.88;;;16.48;nan
63556;BME280;49700;48.072;7.800;2023-05-29T01:40:43;99350.91;;;16.45;nan
63556;BME280;49700;48.072;7.800;2023-05-29T01:43:10;99355.50;;;16.43;nan
63556;BME280;49700;48.072;7.800;2023-05-29T01:45:36;99348.81;;;16.39;nan
63556;BME280;49700;48.072;7.800;2023-05-29T01:48:02;99354.53;;;16.34;nan
63556;BME280;49700;48.072;7.800;2023-05-29T01:50:28;99359.41;;;16.29;nan
63556;BME280;49700;48.072;7.800;2023-05-29T01:52:54;99359.97;;;16.23;nan
63556;BME280;49700;48.072;7.800;2023-05-29T01:55:19;99360.09;;;16.22;nan
63556;BME280;49700;48.072;7.800;2023-05-29T01:57:45;99373.47;;;16.20;nan
63556;BME280;49700;48.072;7.800;2023-05-29T02:00:11;99376.28;;;16.19;nan
63556;BME280;49700;48.072;7.800;2023-05-29T02:02:40;99370.44;;;16.15;nan
63556;BME280;49700;48.072;7.800;2023-05-29T02:05:07;99376.56;;;16.15;nan
63556;BME280;49700;48.072;7.800;2023-05-29T02:07:34;99367.22;;;16.11;nan
63556;BME280;49700;48.072;7.800;2023-05-29T02:09:59;99370.84;;;16.10;nan
63556;BME280;49700;48.072;7.800;2023-05-29T02:12:25;99367.22;;;16.11;nan
63556;BME280;49700;48.072;7.800;2023-05-29T02:14:50;99367.50;;;16.08;nan
63556;BME280;49700;48.072;7.800;2023-05-29T02:17:17;99359.94;;;16.04;nan
63556;BME280;49700;48.072;7.800;2023-05-29T02:19:44;99358.16;;;15.95;nan
63556;BME280;49700;48.072;7.800;2023-05-29T02:22:10;99357.28;;;15.84;nan
63556;BME280;49700;48.072;7.800;2023-05-29T02:24:35;99367.72;;;15.76;nan
63556;BME280;49700;48.072;7.800;2023-05-29T02:27:00;99368.41;;;15.68;nan
63556;BME280;49700;48.072;7.800;2023-05-29T02:29:26;99371.28;;;15.65;nan
63556;BME280;49700;48.072;7.800;2023-05-29T02:31:53;99360.16;;;15.62;nan
63556;BME280;49700;48.072;7.800;2023-05-29T02:34:18;99367.25;;;15.61;nan
63556;BME280;49700;48.072;7.800;2023-05-29T02:36:44;99368.09;;;15.62;nan
63556;BME280;49700;48.072;7.800;2023-05-29T02:39:09;99369.19;;;15.59;nan
63556;BME280;49700;48.072;7.800;2023-05-29T02:41:34;99363.47;;;15.54;nan
63556;BME280;49700;48.072;7.800;2023-05-29T02:44:00;99366.66;;;15.48;nan
63556;BME280;49700;48.072;7.800;2023-05-29T02:46:25;99367.34;;;15.40;nan
63556;BME280;49700;48.072;7.800;2023-05-29T02:48:51;99363.25;;;15.36;nan
63556;BME280;49700;48.072;7.800;2023-05-29T02:51:16;99365.34;;;15.33;nan
63556;BME280;49700;48.072;7.800;2023-05-29T02:53:41;99361.31;;;15.29;nan
63556;BME280;49700;48.072;7.800;2023-05-29T02:56:07;99362.53;;;15.24;nan
63556;BME280;49700;48.072;7.800;2023-05-29T02:58:34;99362.94;;;15.20;nan
63556;BME280;49700;48.072;7.800;2023-05-29T03:01:01;99366.81;;;15.16;nan
63556;BME280;49700;48.072;7.800;2023-05-29T03:03:29;99368.31;;;15.09;nan
63556;BME280;49700;48.072;7.800;2023-05-29T03:05:54;99365.94;;;15.05;nan
63556;BME280;49700;48.072;7.800;2023-05-29T03:08:20;99365.09;;;15.05;nan
63556;BME280;49700;48.072;7.800;2023-05-29T03:10:45;99361.75;;;15.03;nan
63556;BME280;49700;48.072;7.800;2023-05-29T03:13:13;99370.94;;;14.99;nan
63556;BME280;49700;48.072;7.800;2023-05-29T03:15:47;99362.56;;;14.94;nan
63556;BME280;49700;48.072;7.800;2023-05-29T03:18:13;99353.34;;;14.88;nan
63556;BME280;49700;48.072;7.800;2023-05-29T03:20:38;99356.09;;;14.87;nan
63556;BME280;49700;48.072;7.800;2023-05-29T03:23:04;99361.66;;;14.83;nan
63556;BME280;49700;48.072;7.800;2023-05-29T03:25:32;99360.09;;;14.81;nan
63556;BME280;49700;48.072;7.800;2023-05-29T03:27:57;99366.94;;;14.83;nan
63556;BME280;49700;48.072;7.800;2023-05-29T03:30:24;99369.19;;;14.88;nan
63556;BME280;49700;48.072;7.800;2023-05-29T03:32:50;99367.69;;;14.95;nan
63556;BME280;49700;48.072;7.800;2023-05-29T03:35:16;99372.59;;;15.00;nan
63556;BME280;49700;48.072;7.800;2023-05-29T03:37:43;99365.50;;;15.00;nan
63556;BME280;49700;48.072;7.800;2023-05-29T03:40:09;99371.75;;;14.99;nan
63556;BME280;49700;48.072;7.800;2023-05-29T03:42:34;99374.53;;;14.98;nan
63556;BME280;49700;48.072;7.800;2023-05-29T03:45:01;99372.88;;;14.97;nan
63556;BME280;49700;48.072;7.800;2023-05-29T03:47:27;99368.41;;;14.97;nan
63556;BME280;49700;48.072;7.800;2023-05-29T03:49:53;99365.88;;;14.96;nan
63556;BME280;49700;48.072;7.800;2023-05-29T03:52:19;99369.50;;;14.95;nan
63556;BME280;49700;48.072;7.800;2023-05-29T03:54:47;99377.44;;;14.95;nan
63556;BME280;49700;48.072;7.800;2023-05-29T03:57:12;99385.38;;;14.95;nan
63556;BME280;49700;48.072;7.800;2023-05-29T03:59:38;99373.13;;;14.94;nan
63556;BME280;49700;48.072;7.800;2023-05-29T04:02:03;99385.09;;;14.98;nan
63556;BME280;49700;48.072;7.800;2023-05-29T04:04:29;99385.00;;;14.99;nan
63556;BME280;49700;48.072;7.800;2023-05-29T04:06:55;99385.72;;;15.01;nan
63556;BME280;49700;48.072;7.800;2023-05-29T04:09:20;99385.44;;;15.04;nan
63556;BME280;49700;48.072;7.800;2023-05-29T04:11:46;99388.75;;;15.07;nan
63556;BME280;49700;48.072;7.800;2023-05-29T04:14:11;99387.66;;;15.09;nan
63556;BME280;49700;48.072;7.800;2023-05-29T04:16:36;99392.00;;;15.10;nan
63556;BME280;49700;48.072;7.800;2023-05-29T04:19:02;99389.09;;;15.13;nan
63556;BME280;49700;48.072;7.800;2023-05-29T04:21:29;99401.06;;;15.17;nan
63556;BME280;49700;48.072;7.800;2023-05-29T04:23:58;99415.00;;;15.19;nan
63556;BME280;49700;48.072;7.800;2023-05-29T04:26:24;99420.75;;;15.24;nan
63556;BME280;49700;48.072;7.800;2023-05-29T04:28:52;99421.47;;;15.26;nan
63556;BME280;49700;48.072;7.800;2023-05-29T04:31:24;99419.53;;;15.29;nan
63556;BME280;49700;48.072;7.800;2023-05-29T04:33:54;99424.81;;;15.29;nan
63556;BME280;49700;48.072;7.800;2023-05-29T04:36:23;99422.03;;;15.30;nan
63556;BME280;49700;48.072;7.800;2023-05-29T04:38:51;99423.31;;;15.36;nan
63556;BME280;49700;48.072;7.800;2023-05-29T04:41:16;99420.81;;;15.44;nan
63556;BME280;49700;48.072;7.800;2023-05-29T04:43:42;99424.09;;;15.57;nan
63556;BME280;49700;48.072;7.800;2023-05-29T04:46:08;99427.63;;;15.67;nan
63556;BME280;49700;48.072;7.800;2023-05-29T04:48:40;99427.97;;;15.84;nan
63556;BME280;49700;48.072;7.800;2023-05-29T04:51:07;99428.44;;;16.08;nan
63556;BME280;49700;48.072;7.800;2023-05-29T04:53:37;99447.88;;;16.48;nan
63556;BME280;49700;48.072;7.800;2023-05-29T04:56:03;99434.19;;;16.91;nan
63556;BME280;49700;48.072;7.800;2023-05-29T04:58:29;99428.31;;;17.44;nan
63556;BME280;49700;48.072;7.800;2023-05-29T05:00:54;99431.03;;;17.90;nan
63556;BME280;49700;48.072;7.800;2023-05-29T05:03:23;99435.56;;;18.25;nan
63556;BME280;49700;48.072;7.800;2023-05-29T05:05:51;99442.31;;;18.73;nan
63556;BME280;49700;48.072;7.800;2023-05-29T05:08:17;99443.88;;;19.20;nan
63556;BME280;49700;48.072;7.800;2023-05-29T05:10:43;99447.69;;;19.52;nan
63556;BME280;49700;48.072;7.800;2023-05-29T05:13:09;99449.69;;;19.84;nan
63556;BME280;49700;48.072;7.800;2023-05-29T05:15:36;99446.28;;;20.16;nan
63556;BME280;49700;48.072;7.800;2023-05-29T05:18:02;99441.50;;;20.44;nan
63556;BME280;49700;48.072;7.800;2023-05-29T05:20:28;99441.22;;;20.64;nan
63556;BME280;49700;48.072;7.800;2023-05-29T05:22:57;99442.19;;;20.87;nan
63556;BME280;49700;48.072;7.800;2023-05-29T05:25:25;99443.50;;;21.16;nan
63556;BME280;49700;48.072;7.800;2023-05-29T05:27:50;99432.78;;;21.40;nan
63556;BME280;49700;48.072;7.800;2023-05-29T05:30:17;99436.03;;;21.67;nan
63556;BME280;49700;48.072;7.800;2023-05-29T05:32:42;99439.44;;;21.92;nan
63556;BME280;49700;48.072;7.800;2023-05-29T05:35:09;99443.34;;;22.13;nan
63556;BME280;49700;48.072;7.800;2023-05-29T05:37:37;99436.75;;;22.31;nan
63556;BME280;49700;48.072;7.800;2023-05-29T05:40:03;99437.66;;;22.47;nan
63556;BME280;49700;48.072;7.800;2023-05-29T05:42:32;99446.19;;;22.65;nan
63556;BME280;49700;48.072;7.800;2023-05-29T05:45:02;99446.25;;;22.95;nan
63556;BME280;49700;48.072;7.800;2023-05-29T05:47:28;99438.09;;;23.11;nan
63556;BME280;49700;48.072;7.800;2023-05-29T05:49:53;99440.97;;;23.25;nan
63556;BME280;49700;48.072;7.800;2023-05-29T05:52:19;99448.22;;;23.39;nan
63556;BME280;49700;48.072;7.800;2023-05-29T05:54:45;99443.03;;;23.52;nan
63556;BME280;49700;48.072;7.800;2023-05-29T05:57:12;99437.50;;;23.69;nan
63556;BME280;49700;48.072;7.800;2023-05-29T05:59:38;99443.66;;;23.84;nan
63556;BME280;49700;48.072;7.800;2023-05-29T06:02:04;99447.00;;;24.01;nan
63556;BME280;49700;48.072;7.800;2023-05-29T06:04:30;99445.47;;;24.13;nan
63556;BME280;49700;48.072;7.800;2023-05-29T06:06:55;99445.81;;;24.25;nan
63556;BME280;49700;48.072;7.800;2023-05-29T06:09:21;99444.22;;;24.31;nan
63556;BME280;49700;48.072;7.800;2023-05-29T06:11:47;99440.00;;;24.43;nan
63556;BME280;49700;48.072;7.800;2023-05-29T06:14:14;99437.56;;;24.63;nan
63556;BME280;49700;48.072;7.800;2023-05-29T06:16:42;99440.69;;;24.94;nan
63556;BME280;49700;48.072;7.800;2023-05-29T06:19:08;99445.13;;;25.30;nan
63556;BME280;49700;48.072;7.800;2023-05-29T06:21:46;99448.34;;;25.54;nan
63556;BME280;49700;48.072;7.800;2023-05-29T06:24:12;99444.50;;;25.70;nan
63556;BME280;49700;48.072;7.800;2023-05-29T06:26:37;99445.44;;;25.83;nan
63556;BME280;49700;48.072;7.800;2023-05-29T06:29:04;99444.66;;;25.90;nan
63556;BME280;49700;48.072;7.800;2023-05-29T06:31:31;99451.09;;;26.02;nan
63556;BME280;49700;48.072;7.800;2023-05-29T06:33:58;99453.47;;;26.25;nan
63556;BME280;49700;48.072;7.800;2023-05-29T06:36:24;99451.28;;;26.55;nan
63556;BME280;49700;48.072;7.800;2023-05-29T06:38:50;99449.63;;;26.61;nan
63556;BME280;49700;48.072;7.800;2023-05-29T06:41:17;99455.41;;;26.64;nan
63556;BME280;49700;48.072;7.800;2023-05-29T06:43:42;99453.53;;;26.65;nan
63556;BME280;49700;48.072;7.800;2023-05-29T06:46:08;99461.63;;;26.58;nan
63556;BME280;49700;48.072;7.800;2023-05-29T06:48:34;99457.28;;;26.70;nan
63556;BME280;49700;48.072;7.800;2023-05-29T06:51:01;99462.28;;;26.74;nan
63556;BME280;49700;48.072;7.800;2023-05-29T06:53:39;99457.28;;;26.77;nan
63556;BME280;49700;48.072;7.800;2023-05-29T06:56:06;99451.88;;;26.84;nan
63556;BME280;49700;48.072;7.800;2023-05-29T06:58:32;99457.28;;;26.97;nan
63556;BME280;49700;48.072;7.800;2023-05-29T07:00:58;99456.47;;;27.03;nan
63556;BME280;49700;48.072;7.800;2023-05-29T07:03:29;99452.53;;;26.99;nan
63556;BME280;49700;48.072;7.800;2023-05-29T07:05:55;99455.41;;;26.98;nan
63556;BME280;49700;48.072;7.800;2023-05-29T07:08:20;99457.09;;;26.99;nan
63556;BME280;49700;48.072;7.800;2023-05-29T07:10:46;99457.31;;;27.04;nan
63556;BME280;49700;48.072;7.800;2023-05-29T07:13:15;99467.25;;;27.30;nan
63556;BME280;49700;48.072;7.800;2023-05-29T07:15:40;99459.09;;;27.56;nan
63556;BME280;49700;48.072;7.800;2023-05-29T07:18:06;99459.66;;;27.85;nan
63556;BME280;49700;48.072;7.800;2023-05-29T07:20:31;99460.72;;;27.84;nan
63556;BME280;49700;48.072;7.800;2023-05-29T07:22:57;99464.88;;;27.73;nan
63556;BME280;49700;48.072;7.800;2023-05-29T07:25:22;99459.25;;;27.75;nan
63556;BME280;49700;48.072;7.800;2023-05-29T07:27:48;99462.13;;;27.87;nan
63556;BME280;49700;48.072;7.800;2023-05-29T07:30:13;99454.78;;;28.07;nan
63556;BME280;49700;48.072;7.800;2023-05-29T07:32:39;99455.78;;;28.19;nan
63556;BME280;49700;48.072;7.800;2023-05-29T07:35:05;99458.25;;;28.21;nan
63556;BME280;49700;48.072;7.800;2023-05-29T07:37:32;99459.03;;;27.90;nan
63556;BME280;49700;48.072;7.800;2023-05-29T07:39:58;99458.31;;;27.49;nan
63556;BME280;49700;48.072;7.800;2023-05-29T07:42:42;99459.97;;;27.37;nan
63556;BME280;49700;48.072;7.800;2023-05-29T07:45:08;99461.03;;;27.29;nan
63556;BME280;49700;48.072;7.800;2023-05-29T07:47:34;99459.16;;;27.30;nan
63556;BME280;49700;48.072;7.800;2023-05-29T07:49:59;99456.88;;;27.33;nan
63556;BME280;49700;48.072;7.800;2023-05-29T07:52:26;99464.75;;;27.35;nan
63556;BME280;49700;48.072;7.800;2023-05-29T07:54:53;99462.06;;;27.22;nan
63556;BME280;49700;48.072;7.800;2023-05-29T07:57:19;99448.97;;;27.05;nan
63556;BME280;49700;48.072;7.800;2023-05-29T07:59:45;99461.44;;;26.93;nan
63556;BME280;49700;48.072;7.800;2023-05-29T08:02:15;99459.38;;;26.82;nan
63556;BME280;49700;48.072;7.800;2023-05-29T08:05:03;99450.66;;;26.80;nan
63556;BME280;49700;48.072;7.800;2023-05-29T08:07:28;99445.88;;;26.75;nan
63556;BME280;49700;48.072;7.800;2023-05-29T08:09:54;99444.25;;;26.74;nan
63556;BME280;49700;48.072;7.800;2023-05-29T08:12:19;99442.38;;;26.75;nan
63556;BME280;49700;48.072;7.800;2023-05-29T08:14:47;99450.44;;;26.61;nan
63556;BME280;49700;48.072;7.800;2023-05-29T08:17:12;99443.31;;;26.40;nan
63556;BME280;49700;48.072;7.800;2023-05-29T08:19:38;99445.97;;;26.27;nan
63556;BME280;49700;48.072;7.800;2023-05-29T08:22:03;99437.50;;;26.23;nan
63556;BME280;49700;48.072;7.800;2023-05-29T08:24:28;99438.94;;;26.26;nan
63556;BME280;49700;48.072;7.800;2023-05-29T08:26:54;99442.38;;;26.00;nan
63556;BME280;49700;48.072;7.800;2023-05-29T08:29:19;99447.44;;;25.81;nan
63556;BME280;49700;48.072;7.800;2023-05-29T08:31:45;99443.63;;;25.63;nan
63556;BME280;49700;48.072;7.800;2023-05-29T08:34:11;99440.28;;;25.54;nan
63556;BME280;49700;48.072;7.800;2023-05-29T08:36:36;99426.59;;;25.49;nan
63556;BME280;49700;48.072;7.800;2023-05-29T08:39:02;99430.16;;;25.49;nan
63556;BME280;49700;48.072;7.800;2023-05-29T08:44:22;99424.38;;;25.59;nan
63556;BME280;49700;48.072;7.800;2023-05-29T08:46:54;99429.81;;;25.66;nan
63556;BME280;49700;48.072;7.800;2023-05-29T08:49:21;99423.72;;;25.85;nan
63556;BME280;49700;48.072;7.800;2023-05-29T08:51:49;99421.84;;;25.92;nan
63556;BME280;49700;48.072;7.800;2023-05-29T08:57:00;99411.41;;;26.31;nan
63556;BME280;49700;48.072;7.800;2023-05-29T08:59:27;99415.16;;;26.43;nan
63556;BME280;49700;48.072;7.800;2023-05-29T09:01:55;99413.56;;;26.55;nan
63556;BME280;49700;48.072;7.800;2023-05-29T09:04:20;99410.25;;;26.66;nan
63556;BME280;49700;48.072;7.800;2023-05-29T09:06:46;99415.84;;;26.72;nan
63556;BME280;49700;48.072;7.800;2023-05-29T09:09:12;99411.69;;;26.76;nan
63556;BME280;49700;48.072;7.800;2023-05-29T09:11:37;99418.13;;;26.88;nan
63556;BME280;49700;48.072;7.800;2023-05-29T09:14:03;99407.97;;;26.90;nan
63556;BME280;49700;48.072;7.800;2023-05-29T09:16:28;99414.38;;;26.96;nan
63556;BME280;49700;48.072;7.800;2023-05-29T09:19:04;99414.38;;;27.09;nan
63556;BME280;49700;48.072;7.800;2023-05-29T09:21:30;99412.69;;;27.21;nan
63556;BME280;49700;48.072;7.800;2023-05-29T09:24:04;99414.34;;;27.29;nan
63556;BME280;49700;48.072;7.800;2023-05-29T09:26:34;99409.34;;;27.39;nan
63556;BME280;49700;48.072;7.800;2023-05-29T09:28:59;99410.19;;;27.40;nan
63556;BME280;49700;48.072;7.800;2023-05-29T09:31:26;99408.50;;;27.45;nan
63556;BME280;49700;48.072;7.800;2023-05-29T09:33:51;99403.53;;;27.42;nan
63556;BME280;49700;48.072;7.800;2023-05-29T09:36:22;99403.34;;;27.44;nan
63556;BME280;49700;48.072;7.800;2023-05-29T09:38:49;99404.75;;;27.46;nan
63556;BME280;49700;48.072;7.800;2023-05-29T09:41:23;99402.88;;;27.53;nan
63556;BME280;49700;48.072;7.800;2023-05-29T09:43:50;99402.19;;;27.65;nan
63556;BME280;49700;48.072;7.800;2023-05-29T09:46:19;99405.56;;;27.60;nan
63556;BME280;49700;48.072;7.800;2023-05-29T09:48:45;99404.34;;;27.49;nan
63556;BME280;49700;48.072;7.800;2023-05-29T09:51:21;99414.50;;;27.47;nan
63556;BME280;49700;48.072;7.800;2023-05-29T09:53:50;99402.88;;;27.53;nan
63556;BME280;49700;48.072;7.800;2023-05-29T09:56:19;99409.06;;;27.61;nan
63556;BME280;49700;48.072;7.800;2023-05-29T09:58:48;99406.31;;;27.80;nan
63556;BME280;49700;48.072;7.800;2023-05-29T10:01:15;99402.56;;;27.88;nan
63556;BME280;49700;48.072;7.800;2023-05-29T10:03:43;99400.47;;;27.90;nan
63556;BME280;49700;48.072;7.800;2023-05-29T10:06:16;99393.38;;;27.96;nan
63556;BME280;49700;48.072;7.800;2023-05-29T10:08:49;99396.91;;;27.96;nan
63556;BME280;49700;48.072;7.800;2023-05-29T10:11:20;99391.50;;;27.96;nan
63556;BME280;49700;48.072;7.800;2023-05-29T10:13:51;99395.72;;;27.86;nan
63556;BME280;49700;48.072;7.800;2023-05-29T10:16:20;99395.91;;;27.77;nan
63556;BME280;49700;48.072;7.800;2023-05-29T10:18:55;99392.22;;;27.72;nan
63556;BME280;49700;48.072;7.800;2023-05-29T10:21:22;99396.56;;;27.73;nan
63556;BME280;49700;48.072;7.800;2023-05-29T10:23:50;99392.00;;;27.80;nan
63556;BME280;49700;48.072;7.800;2023-05-29T10:26:25;99386.16;;;27.90;nan
63556;BME280;49700;48.072;7.800;2023-05-29T10:29:08;99390.38;;;28.11;nan
63556;BME280;49700;48.072;7.800;2023-05-29T10:32:02;99385.72;;;28.24;nan
63556;BME280;49700;48.072;7.800;2023-05-29T10:37:54;99364.88;;;28.32;nan
63556;BME280;49700;48.072;7.800;2023-05-29T10:40:25;99371.91;;;28.39;nan
63556;BME280;49700;48.072;7.800;2023-05-29T10:42:52;99364.41;;;28.41;nan
63556;BME280;49700;48.072;7.800;2023-05-29T10:50:42;99367.91;;;28.49;nan
63556;BME280;49700;48.072;7.800;2023-05-29T10:53:08;99361.41;;;28.56;nan
63556;BME280;49700;48.072;7.800;2023-05-29T10:55:39;99358.06;;;28.61;nan
63556;BME280;49700;48.072;7.800;2023-05-29T10:58:07;99355.19;;;28.56;nan
63556;BME280;49700;48.072;7.800;2023-05-29T11:00:32;99353.97;;;28.52;nan
63556;BME280;49700;48.072;7.800;2023-05-29T11:03:03;99353.13;;;28.51;nan
63556;BME280;49700;48.072;7.800;2023-05-29T11:05:28;99351.31;;;28.45;nan
63556;BME280;49700;48.072;7.800;2023-05-29T11:08:00;99354.84;;;28.45;nan
63556;BME280;49700;48.072;7.800;2023-05-29T11:13:06;99353.75;;;28.53;nan
63556;BME280;49700;48.072;7.800;2023-05-29T11:15:32;99347.16;;;28.67;nan
63556;BME280;49700;48.072;7.800;2023-05-29T11:18:06;99350.44;;;28.76;nan
63556;BME280;49700;48.072;7.800;2023-05-29T11:20:50;99351.38;;;28.63;nan
63556;BME280;49700;48.072;7.800;2023-05-29T11:23:17;99349.13;;;28.60;nan
63556;BME280;49700;48.072;7.800;2023-05-29T11:25:44;99343.47;;;28.62;nan
63556;BME280;49700;48.072;7.800;2023-05-29T11:28:12;99347.00;;;28.62;nan
63556;BME280;49700;48.072;7.800;2023-05-29T11:30:47;99347.41;;;28.66;nan
63556;BME280;49700;48.072;7.800;2023-05-29T11:33:20;99344.47;;;28.67;nan
63556;BME280;49700;48.072;7.800;2023-05-29T11:35:55;99337.56;;;28.72;nan
63556;BME280;49700;48.072;7.800;2023-05-29T11:38:21;99341.47;;;28.76;nan
63556;BME280;49700;48.072;7.800;2023-05-29T11:40:46;99342.97;;;28.72;nan
63556;BME280;49700;48.072;7.800;2023-05-29T11:43:12;99333.88;;;28.66;nan
63556;BME280;49700;48.072;7.800;2023-05-29T11:45:38;99339.00;;;28.74;nan
63556;BME280;49700;48.072;7.800;2023-05-29T11:48:03;99336.91;;;28.76;nan
63556;BME280;49700;48.072;7.800;2023-05-29T11:50:31;99324.31;;;28.88;nan
63556;BME280;49700;48.072;7.800;2023-05-29T11:52:58;99322.56;;;28.94;nan
63556;BME280;49700;48.072;7.800;2023-05-29T11:55:25;99324.25;;;28.95;nan
63556;BME280;49700;48.072;7.800;2023-05-29T11:57:56;99323.78;;;28.98;nan
63556;BME280;49700;48.072;7.800;2023-05-29T12:00:22;99317.41;;;28.93;nan
63556;BME280;49700;48.072;7.800;2023-05-29T12:02:48;99324.97;;;28.84;nan
63556;BME280;49700;48.072;7.800;2023-05-29T12:05:15;99320.00;;;28.81;nan
63556;BME280;49700;48.072;7.800;2023-05-29T12:07:49;99319.19;;;28.80;nan
63556;BME280;49700;48.072;7.800;2023-05-29T12:10:16;99322.06;;;28.85;nan
63556;BME280;49700;48.072;7.800;2023-05-29T12:12:50;99329.94;;;28.87;nan
63556;BME280;49700;48.072;7.800;2023-05-29T12:15:19;99321.31;;;28.97;nan
63556;BME280;49700;48.072;7.800;2023-05-29T12:17:45;99311.47;;;29.02;nan
63556;BME280;49700;48.072;7.800;2023-05-29T12:20:12;99315.00;;;29.03;nan
63556;BME280;49700;48.072;7.800;2023-05-29T12:22:39;99311.66;;;29.07;nan
63556;BME280;49700;48.072;7.800;2023-05-29T12:25:12;99316.25;;;29.07;nan
63556;BME280;49700;48.072;7.800;2023-05-29T12:27:39;99309.09;;;29.13;nan
63556;BME280;49700;48.072;7.800;2023-05-29T12:32:39;99304.66;;;29.18;nan
63556;BME280;49700;48.072;7.800;2023-05-29T12:35:25;99305.13;;;29.15;nan
63556;BME280;49700;48.072;7.800;2023-05-29T12:40:25;99305.63;;;29.24;nan
63556;BME280;49700;48.072;7.800;2023-05-29T12:42:56;99307.97;;;29.20;nan
63556;BME280;49700;48.072;7.800;2023-05-29T12:45:25;99313.53;;;29.25;nan
63556;BME280;49700;48.072;7.800;2023-05-29T12:50:27;99309.69;;;29.33;nan
63556;BME280;49700;48.072;7.800;2023-05-29T12:52:57;99317.34;;;29.36;nan
63556;BME280;49700;48.072;7.800;2023-05-29T12:55:23;99319.81;;;29.38;nan
63556;BME280;49700;48.072;7.800;2023-05-29T12:57:49;99309.91;;;29.31;nan
63556;BME280;49700;48.072;7.800;2023-05-29T13:00:15;99302.88;;;29.30;nan
63556;BME280;49700;48.072;7.800;2023-05-29T13:02:40;99310.72;;;29.32;nan
63556;BME280;49700;48.072;7.800;2023-05-29T13:05:06;99306.28;;;29.38;nan
63556;BME280;49700;48.072;7.800;2023-05-29T13:07:33;99313.28;;;29.45;nan
63556;BME280;49700;48.072;7.800;2023-05-29T13:09:59;99309.75;;;29.45;nan
63556;BME280;49700;48.072;7.800;2023-05-29T13:12:27;99312.00;;;29.48;nan
63556;BME280;49700;48.072;7.800;2023-05-29T13:14:52;99315.06;;;29.51;nan
63556;BME280;49700;48.072;7.800;2023-05-29T13:17:21;99303.34;;;29.58;nan
63556;BME280;49700;48.072;7.800;2023-05-29T13:19:46;99310.19;;;29.60;nan
63556;BME280;49700;48.072;7.800;2023-05-29T13:22:11;99304.47;;;29.68;nan
63556;BME280;49700;48.072;7.800;2023-05-29T13:24:37;99295.56;;;29.80;nan
63556;BME280;49700;48.072;7.800;2023-05-29T13:27:02;99302.06;;;29.90;nan
63556;BME280;49700;48.072;7.800;2023-05-29T13:29:28;99292.47;;;30.06;nan
63556;BME280;49700;48.072;7.800;2023-05-29T13:31:54;99290.44;;;30.13;nan
63556;BME280;49700;48.072;7.800;2023-05-29T13:34:19;99297.84;;;29.94;nan
63556;BME280;49700;48.072;7.800;2023-05-29T13:36:44;99300.78;;;29.93;nan
63556;BME280;49700;48.072;7.800;2023-05-29T13:39:10;99302.41;;;29.82;nan
63556;BME280;49700;48.072;7.800;2023-05-29T13:41:36;99300.09;;;29.67;nan
63556;BME280;49700;48.072;7.800;2023-05-29T13:44:01;99284.88;;;29.54;nan
63556;BME280;49700;48.072;7.800;2023-05-29T13:46:27;99292.88;;;29.61;nan
63556;BME280;49700;48.072;7.800;2023-05-29T13:48:52;99285.66;;;29.73;nan
63556;BME280;49700;48.072;7.800;2023-05-29T13:51:18;99287.44;;;29.80;nan
63556;BME280;49700;48.072;7.800;2023-05-29T13:53:43;99286.03;;;29.89;nan